Time;durP1;ratioP1;P1;durP2;ratioP2;P2;SDS_P1;SDS_P2;PMS_P1;PMS_P2;Temp;Humidity;BMP_temperature;BMP_pressure;BME280_temperature;BME280_humidity;BME280_pressure;Samples;Min_cycle;Max_cycle;Signal;HPM_P1;HPM_P2
2022/06/25 05:36:49;;;;;;;;;;;;;;;20.43;68.50;99365.67;1667388;85;20126;-73
2022/06/25 05:39:16;;;;;;;;;;;;;;;20.54;67.10;99367.16;1675414;85;20100;-72
2022/06/25 05:41:42;;;;;;;;;;;;;;;20.62;67.01;99369.61;1675391;85;20159;-73
2022/06/25 05:44:08;;;;;;;;;;;;;;;20.72;67.75;99366.69;1675366;85;20084;-72
2022/06/25 05:46:35;;;;;;;;;;;;;;;20.83;66.56;99365.34;1675406;85;21049;-72
2022/06/25 05:49:01;;;;;;;;;;;;;;;20.93;67.37;99366.80;1675537;85;20525;-71
2022/06/25 05:51:28;;;;;;;;;;;;;;;21.05;66.70;99362.89;1675394;85;20081;-72
2022/06/25 05:53:54;;;;;;;;;;;;;;;21.17;65.33;99356.17;1675375;85;20451;-72
2022/06/25 05:56:21;;;;;;;;;;;;;;;21.28;65.06;99357.06;1675607;85;20124;-72
2022/06/25 05:58:48;;;;;;;;;;;;;;;21.39;64.52;99360.66;1674813;85;21111;-72
2022/06/25 06:01:14;;;;;;;;;;;;;;;21.49;63.78;99359.11;1674613;85;20134;-72
2022/06/25 06:03:40;;;;;;;;;;;;;;;21.59;63.70;99350.77;1673986;86;20113;-73
2022/06/25 06:06:07;;;;;;;;;;;;;;;21.72;63.39;99358.99;1673794;86;20635;-71
2022/06/25 06:08:34;;;;;;;;;;;;;;;21.82;61.88;99349.04;1675001;85;20072;-72
2022/06/25 06:11:00;;;;;;;;;;;;;;;21.89;60.71;99353.84;1675591;84;21201;-74
2022/06/25 06:13:27;;;;;;;;;;;;;;;21.95;60.24;99353.03;1675236;85;20416;-73
2022/06/25 06:15:53;;;;;;;;;;;;;;;22.03;60.85;99351.08;1675312;84;20140;-72
2022/06/25 06:18:19;;;;;;;;;;;;;;;22.11;60.34;99356.88;1651199;85;20112;-71
2022/06/25 06:20:46;;;;;;;;;;;;;;;22.18;59.28;99362.48;1675290;85;20121;-71
2022/06/25 06:23:13;;;;;;;;;;;;;;;22.24;58.37;99360.89;1675330;85;21095;-71
2022/06/25 06:25:40;;;;;;;;;;;;;;;22.29;58.85;99361.89;1677666;84;20120;-73
2022/06/25 06:28:08;;;;;;;;;;;;;;;22.36;58.64;99366.69;1675244;85;20093;-73
2022/06/25 06:30:34;;;;;;;;;;;;;;;22.42;59.27;99365.69;1675329;85;20344;-72
2022/06/25 06:33:01;;;;;;;;;;;;;;;22.49;58.42;99367.89;1675555;85;20120;-72
2022/06/25 06:35:27;;;;;;;;;;;;;;;22.57;58.96;99365.86;1675266;85;21098;-73
2022/06/25 06:37:53;;;;;;;;;;;;;;;22.64;58.19;99368.05;1670434;84;20105;-72
2022/06/25 06:40:20;;;;;;;;;;;;;;;22.72;57.82;99373.05;1680989;84;20119;-75
2022/06/25 06:42:47;;;;;;;;;;;;;;;22.81;57.27;99369.27;1665789;86;20074;-72
2022/06/25 06:45:14;;;;;;;;;;;;;;;22.91;57.93;99362.05;1665678;86;20090;-73
2022/06/25 06:47:40;;;;;;;;;;;;;;;23.04;57.98;99367.42;1665607;86;21181;-74
2022/06/25 06:50:10;;;;;;;;;;;;;;;23.16;56.42;99362.77;1665552;86;20086;-74
2022/06/25 06:52:36;;;;;;;;;;;;;;;23.23;56.49;99371.74;1665654;85;20454;-74
2022/06/25 06:55:04;;;;;;;;;;;;;;;23.33;56.40;99376.52;1665856;86;20098;-72
2022/06/25 06:57:32;;;;;;;;;;;;;;;23.42;56.28;99369.88;1665834;86;20190;-72
2022/06/25 06:59:59;;;;;;;;;;;;;;;23.52;55.32;99375.23;1665674;86;21189;-72
2022/06/25 07:02:26;;;;;;;;;;;;;;;23.60;54.57;99372.64;1665836;86;20426;-73
2022/06/25 07:04:53;;;;;;;;;;;;;;;23.68;54.66;99367.19;1677529;84;20423;-72
2022/06/25 07:07:19;;;;;;;;;;;;;;;23.78;55.46;99370.52;1694068;84;20116;-73
2022/06/25 07:09:46;;;;;;;;;;;;;;;23.93;54.84;99362.82;1694731;84;20447;-72
2022/06/25 07:12:12;;;;;;;;;;;;;;;24.08;54.32;99367.13;1694976;84;21174;-70
2022/06/25 07:14:39;;;;;;;;;;;;;;;24.25;53.60;99383.07;1694896;83;20108;-70
2022/06/25 07:17:05;;;;;;;;;;;;;;;24.42;52.30;99376.30;1695038;84;20095;-81
2022/06/25 07:19:32;;;;;;;;;;;;;;;24.56;51.60;99380.40;1694960;84;20456;-71
2022/06/25 07:21:58;;;;;;;;;;;;;;;24.67;50.43;99381.11;1695004;84;20088;-70
2022/06/25 07:24:25;;;;;;;;;;;;;;;24.76;50.36;99373.00;1694160;84;21798;-71
2022/06/25 07:26:51;;;;;;;;;;;;;;;24.82;49.20;99375.55;1694699;84;20124;-71
2022/06/25 07:29:18;;;;;;;;;;;;;;;24.87;49.79;99377.88;1694440;84;20096;-73
2022/06/25 07:31:45;;;;;;;;;;;;;;;24.94;48.42;99380.62;1694526;84;20788;-71
2022/06/25 07:34:12;;;;;;;;;;;;;;;25.00;49.90;99383.20;1695211;84;20157;-71
2022/06/25 07:36:39;;;;;;;;;;;;;;;25.14;48.13;99381.45;1694973;84;21570;-72
2022/06/25 07:39:05;;;;;;;;;;;;;;;25.23;48.78;99383.16;1672368;84;20484;-72
2022/06/25 07:41:32;;;;;;;;;;;;;;;25.40;48.56;99377.95;1660725;86;20118;-72
2022/06/25 07:43:59;;;;;;;;;;;;;;;25.59;47.28;99385.71;1660678;86;20122;-72
2022/06/25 07:46:26;;;;;;;;;;;;;;;25.70;45.40;99383.40;1660783;86;20460;-71
2022/06/25 07:48:52;;;;;;;;;;;;;;;25.71;46.85;99385.79;1660674;86;21178;-71
2022/06/25 07:54:04;;;;;;;;;;;;;;;25.65;45.88;99387.48;1660776;86;20133;-72
2022/06/25 07:56:31;;;;;;;;;;;;;;;25.51;46.04;99386.22;1660748;86;20335;-72
2022/06/25 07:58:58;;;;;;;;;;;;;;;25.37;46.84;99385.81;1660776;86;20484;-72
2022/06/25 08:01:24;;;;;;;;;;;;;;;25.18;46.46;99394.25;1660285;86;21140;-75
2022/06/25 08:03:51;;;;;;;;;;;;;;;24.99;47.05;99392.83;1659151;86;20164;-75
2022/06/25 08:06:17;;;;;;;;;;;;;;;24.81;47.97;99390.80;1660802;85;20117;-69
2022/06/25 08:08:44;;;;;;;;;;;;;;;24.80;48.92;99385.60;1660657;86;20460;-71
2022/06/25 08:11:11;;;;;;;;;;;;;;;25.02;48.96;99385.59;1660620;85;20164;-72
2022/06/25 08:13:38;;;;;;;;;;;;;;;25.42;49.26;99386.72;1660643;86;21128;-72
2022/06/25 08:16:05;;;;;;;;;;;;;;;25.85;48.24;99383.40;1658997;85;20153;-75
2022/06/25 08:18:31;;;;;;;;;;;;;;;26.12;45.99;99379.17;1659743;86;20515;-71
2022/06/25 08:21:00;;;;;;;;;;;;;;;26.12;46.43;99383.39;1660601;85;20121;-74
2022/06/25 08:23:26;;;;;;;;;;;;;;;26.02;46.35;99380.92;1660741;86;20157;-72
2022/06/25 08:25:52;;;;;;;;;;;;;;;26.05;47.28;99377.87;1660648;86;21114;-72
2022/06/25 08:28:21;;;;;;;;;;;;;;;26.32;46.02;99375.87;1660647;86;20154;-71
2022/06/25 08:30:47;;;;;;;;;;;;;;;26.75;45.26;99382.98;1660711;85;20125;-70
2022/06/25 08:33:14;;;;;;;;;;;;;;;27.21;42.36;99379.31;1660531;86;20774;-72
2022/06/25 08:35:42;;;;;;;;;;;;;;;27.48;43.25;99376.36;1660714;85;20161;-73
2022/06/25 08:38:08;;;;;;;;;;;;;;;27.78;44.85;99378.15;1663503;85;21115;-75
2022/06/25 08:40:35;;;;;;;;;;;;;;;28.07;43.32;99376.90;1679394;85;20084;-75
2022/06/25 08:43:02;;;;;;;;;;;;;;;27.97;41.75;99379.34;1679482;85;20514;-75
2022/06/25 08:45:29;;;;;;;;;;;;;;;27.68;41.94;99380.61;1679470;85;20150;-75
2022/06/25 08:47:57;;;;;;;;;;;;;;;27.60;41.74;99373.53;1679457;85;20137;-74
2022/06/25 08:50:24;;;;;;;;;;;;;;;27.57;42.31;99368.73;1679712;85;21148;-74
2022/06/25 08:52:52;;;;;;;;;;;;;;;27.54;42.23;99369.60;1679479;85;20422;-73
2022/06/25 08:55:34;;;;;;;;;;;;;;;27.73;42.92;99365.97;1679461;85;20121;-73
2022/06/25 08:58:03;;;;;;;;;;;;;;;27.74;42.37;99370.38;1679381;85;20112;-73
2022/06/25 09:00:30;;;;;;;;;;;;;;;27.73;42.81;99366.61;1679437;85;20089;-75
2022/06/25 09:02:57;;;;;;;;;;;;;;;27.74;42.11;99361.13;1679632;85;21111;-75
2022/06/25 09:05:31;;;;;;;;;;;;;;;27.81;40.88;99363.17;1679468;85;20407;-75
2022/06/25 09:07:59;;;;;;;;;;;;;;;27.65;40.91;99368.00;1679466;85;20100;-75
2022/06/25 09:10:28;;;;;;;;;;;;;;;27.41;42.08;99367.25;1679495;85;20084;-73
2022/06/25 09:12:56;;;;;;;;;;;;;;;27.45;42.51;99371.59;1679419;85;20431;-72
2022/06/25 09:15:27;;;;;;;;;;;;;;;27.72;42.00;99371.45;1679443;84;20629;-73
2022/06/25 09:17:54;;;;;;;;;;;;;;;28.10;41.18;99360.50;1679455;85;20427;-76
2022/06/25 09:20:21;;;;;;;;;;;;;;;28.43;39.68;99364.77;1660269;85;20097;-76
2022/06/25 09:23:05;;;;;;;;;;;;;;;28.58;39.42;99363.97;1679454;85;20111;-72
2022/06/25 09:25:33;;;;;;;;;;;;;;;28.81;41.28;99363.59;1679427;85;20151;-73
2022/06/25 09:28:01;;;;;;;;;;;;;;;28.90;39.08;99368.79;1680172;85;21198;-75
2022/06/25 09:30:29;;;;;;;;;;;;;;;28.90;39.46;99374.44;1679440;85;20072;-74
2022/06/25 09:32:57;;;;;;;;;;;;;;;28.98;40.33;99369.39;1679539;85;20084;-76
2022/06/25 09:35:38;;;;;;;;;;;;;;;28.97;40.17;99369.84;1679619;85;20430;-69
2022/06/25 09:38:07;;;;;;;;;;;;;;;28.98;38.67;99375.66;1668561;85;20185;-69
2022/06/25 09:40:35;;;;;;;;;;;;;;;29.08;39.39;99368.31;1634984;85;21986;-68
2022/06/25 09:43:15;;;;;;;;;;;;;;;29.35;38.90;99372.20;1646318;87;20189;-68
2022/06/25 09:45:43;;;;;;;;;;;;;;;29.50;38.34;99381.88;1646566;87;20198;-69
2022/06/25 09:48:20;;;;;;;;;;;;;;;29.63;37.38;99368.38;1661099;85;20117;-69
2022/06/25 09:51:07;;;;;;;;;;;;;;;29.78;36.21;99366.72;1641317;86;20166;-69
2022/06/25 09:53:35;;;;;;;;;;;;;;;29.61;33.94;99363.80;1660867;85;21127;-70
2022/06/25 09:56:02;;;;;;;;;;;;;;;29.22;37.31;99362.89;1660690;86;20156;-69
2022/06/25 09:58:31;;;;;;;;;;;;;;;29.31;37.70;99365.06;1660709;86;20219;-71
2022/06/25 10:00:57;;;;;;;;;;;;;;;29.51;37.68;99367.11;1660744;86;20479;-70
2022/06/25 10:03:24;;;;;;;;;;;;;;;29.34;36.28;99367.80;1660752;86;20122;-79
2022/06/25 10:05:51;;;;;;;;;;;;;;;29.09;37.79;99358.59;1661003;86;22158;-68
2022/06/25 10:08:17;;;;;;;;;;;;;;;29.15;38.34;99368.73;1661051;86;20133;-69
2022/06/25 10:10:45;;;;;;;;;;;;;;;29.54;37.43;99374.70;1660726;86;20121;-69
2022/06/25 10:13:13;;;;;;;;;;;;;;;29.85;37.37;99372.95;1661257;86;20176;-69
2022/06/25 10:15:39;;;;;;;;;;;;;;;29.94;34.39;99365.83;1660867;85;20476;-69
2022/06/25 10:18:09;;;;;;;;;;;;;;;29.84;36.83;99370.58;1660808;86;21551;-69
2022/06/25 10:20:38;;;;;;;;;;;;;;;29.95;35.09;99379.53;1660959;86;20121;-69
2022/06/25 10:23:05;;;;;;;;;;;;;;;30.07;36.58;99369.47;1630258;88;20092;-69
2022/06/25 10:25:32;;;;;;;;;;;;;;;30.27;37.31;99364.38;1663187;85;20165;-70
2022/06/25 10:28:07;;;;;;;;;;;;;;;30.52;35.44;99371.42;1661079;86;20220;-70
2022/06/25 10:30:39;;;;;;;;;;;;;;;30.51;36.11;99364.80;1660767;86;21816;-69
2022/06/25 10:33:06;;;;;;;;;;;;;;;30.52;33.16;99363.55;1640129;86;20194;-70
2022/06/25 10:35:35;;;;;;;;;;;;;;;30.63;33.58;99366.82;1660646;85;20504;-70
2022/06/25 10:38:23;;;;;;;;;;;;;;;30.76;33.57;99361.92;1659964;86;20189;-70
2022/06/25 10:40:55;;;;;;;;;;;;;;;30.77;33.80;99361.30;1671798;85;20121;-70
2022/06/25 10:43:45;;;;;;;;;;;;;;;30.50;35.54;99358.97;1664060;85;21178;-70
2022/06/25 10:46:31;;;;;;;;;;;;;;;30.54;35.56;99361.06;1670201;86;20156;-70
2022/06/25 10:49:07;;;;;;;;;;;;;;;30.66;34.49;99363.08;1673074;86;20427;-70
2022/06/25 10:51:41;;;;;;;;;;;;;;;30.53;33.29;99355.23;1672691;85;20077;-70
2022/06/25 10:54:26;;;;;;;;;;;;;;;30.26;35.58;99357.75;1672128;86;20242;-71
2022/06/25 10:56:55;;;;;;;;;;;;;;;30.01;35.41;99364.23;1672857;86;21894;-70
2022/06/25 10:59:39;;;;;;;;;;;;;;;29.96;36.00;99366.17;1667661;85;20163;-71
2022/06/25 11:02:07;;;;;;;;;;;;;;;29.91;35.48;99364.70;1666286;85;20162;-71
2022/06/25 11:04:33;;;;;;;;;;;;;;;29.93;35.47;99367.87;1647484;86;20127;-69
2022/06/25 11:07:12;;;;;;;;;;;;;;;30.01;34.20;99366.44;1650535;87;20473;-69
2022/06/25 11:09:40;;;;;;;;;;;;;;;30.29;34.45;99359.67;1656515;86;21630;-69
2022/06/25 11:12:07;;;;;;;;;;;;;;;30.57;34.06;99346.61;1656690;86;20461;-72
2022/06/25 11:14:34;;;;;;;;;;;;;;;30.78;34.34;99350.92;1656702;85;20504;-71
2022/06/25 11:17:09;;;;;;;;;;;;;;;30.94;34.88;99347.13;1656702;86;20126;-67
2022/06/25 11:19:35;;;;;;;;;;;;;;;31.08;33.09;99355.75;1656967;86;20090;-78
2022/06/25 11:22:03;;;;;;;;;;;;;;;31.12;31.63;99350.75;1657174;86;21572;-73
2022/06/25 11:24:30;;;;;;;;;;;;;;;31.20;32.71;99345.78;1686942;85;20095;-72
2022/06/25 11:29:46;;;;;;;;;;;;;;;31.33;31.15;99349.97;1686931;85;20084;-68
2022/06/25 11:32:14;;;;;;;;;;;;;;;31.19;30.63;99349.10;1686330;85;20172;-68
2022/06/25 11:34:41;;;;;;;;;;;;;;;31.20;32.95;99349.24;1686758;85;21159;-69
2022/06/25 11:37:09;;;;;;;;;;;;;;;31.23;32.48;99356.83;1686037;85;20092;-70
2022/06/25 11:39:36;;;;;;;;;;;;;;;31.34;32.92;99346.51;1688240;85;20083;-69
2022/06/25 11:42:04;;;;;;;;;;;;;;;31.46;33.31;99343.61;1693406;85;20400;-70
2022/06/25 11:44:44;;;;;;;;;;;;;;;31.47;30.43;99345.19;1693482;85;20143;-69
2022/06/25 11:47:22;;;;;;;;;;;;;;;31.33;31.17;99338.63;1693239;85;21172;-69
2022/06/25 11:49:49;;;;;;;;;;;;;;;31.17;30.55;99350.98;1692166;85;20125;-69
2022/06/25 11:52:17;;;;;;;;;;;;;;;31.09;32.03;99349.62;1693727;84;20466;-69
2022/06/25 11:54:44;;;;;;;;;;;;;;;30.97;30.46;99343.38;1693431;85;20124;-70
2022/06/25 11:57:17;;;;;;;;;;;;;;;30.80;29.87;99340.55;1693505;85;20085;-68
2022/06/25 11:59:46;;;;;;;;;;;;;;;30.65;32.52;99338.83;1693112;85;21808;-71
2022/06/25 12:02:12;;;;;;;;;;;;;;;30.67;31.88;99334.12;1693522;85;20199;-70
2022/06/25 12:04:58;;;;;;;;;;;;;;;30.79;33.83;99335.50;1693435;85;20120;-71
2022/06/25 12:07:29;;;;;;;;;;;;;;;31.12;33.63;99335.16;1693489;84;20639;-70
2022/06/25 12:09:57;;;;;;;;;;;;;;;31.46;32.90;99332.25;1693650;85;20100;-70
2022/06/25 12:12:24;;;;;;;;;;;;;;;31.64;32.71;99341.51;1693543;85;21270;-69
2022/06/25 12:14:51;;;;;;;;;;;;;;;31.62;32.11;99338.97;1693455;84;20137;-70
2022/06/25 12:17:17;;;;;;;;;;;;;;;31.65;31.73;99333.79;1693611;85;20119;-70
2022/06/25 12:19:49;;;;;;;;;;;;;;;31.68;30.50;99335.73;1693676;85;20476;-70
2022/06/25 12:22:24;;;;;;;;;;;;;;;31.52;31.58;99338.13;1693735;85;20088;-70
2022/06/25 12:24:51;;;;;;;;;;;;;;;31.55;31.84;99332.94;1671116;85;21225;-70
2022/06/25 12:27:18;;;;;;;;;;;;;;;31.70;31.59;99328.96;1672387;85;20452;-70
2022/06/25 12:29:48;;;;;;;;;;;;;;;32.02;31.79;99330.50;1673235;86;20117;-69
2022/06/25 12:32:15;;;;;;;;;;;;;;;32.14;30.57;99330.41;1654072;86;20089;-69
2022/06/25 12:34:50;;;;;;;;;;;;;;;31.94;30.36;99332.84;1673468;86;20124;-71
2022/06/25 12:37:27;;;;;;;;;;;;;;;31.52;32.28;99326.78;1672600;85;21166;-70
2022/06/25 12:39:57;;;;;;;;;;;;;;;31.07;32.46;99340.00;1669739;85;20157;-70
2022/06/25 12:42:22;;;;;;;;;;;;;;;30.54;32.38;99336.98;1660769;85;20185;-70
2022/06/25 12:44:49;;;;;;;;;;;;;;;30.09;33.38;99330.97;1660944;85;20118;-70
2022/06/25 12:47:17;;;;;;;;;;;;;;;30.01;34.78;99335.93;1660578;86;20129;-70
2022/06/25 12:49:56;;;;;;;;;;;;;;;30.30;34.11;99331.53;1660637;86;21550;-70
2022/06/25 12:52:37;;;;;;;;;;;;;;;30.67;34.35;99326.41;1660638;86;20150;-70
2022/06/25 12:55:04;;;;;;;;;;;;;;;31.13;35.15;99333.94;1660966;85;20137;-70
2022/06/25 12:57:38;;;;;;;;;;;;;;;31.28;32.45;99337.80;1660470;86;20186;-68
2022/06/25 13:00:07;;;;;;;;;;;;;;;30.83;31.01;99340.42;1660769;85;20142;-69
2022/06/25 13:02:34;;;;;;;;;;;;;;;30.55;34.04;99335.73;1660284;85;21075;-69
2022/06/25 13:05:00;;;;;;;;;;;;;;;30.72;33.15;99341.41;1659419;86;20142;-68
2022/06/25 13:07:27;;;;;;;;;;;;;;;30.88;30.55;99341.88;1660494;86;20117;-70
2022/06/25 13:09:53;;;;;;;;;;;;;;;30.75;30.68;99337.67;1657836;85;20150;-69
2022/06/25 13:12:19;;;;;;;;;;;;;;;30.79;31.26;99342.59;1659374;85;20177;-68
2022/06/25 13:14:45;;;;;;;;;;;;;;;30.86;32.47;99345.17;1654456;85;21144;-70
2022/06/25 13:17:12;;;;;;;;;;;;;;;30.84;34.00;99339.80;1679421;85;20192;-69
2022/06/25 13:19:39;;;;;;;;;;;;;;;30.90;34.71;99342.22;1679562;85;20096;-69
2022/06/25 13:22:06;;;;;;;;;;;;;;;30.74;33.33;99333.25;1679429;85;20409;-69
2022/06/25 13:24:33;;;;;;;;;;;;;;;30.64;35.20;99341.49;1679429;85;20173;-69
2022/06/25 13:26:59;;;;;;;;;;;;;;;30.71;34.62;99344.70;1679495;85;21152;-69
2022/06/25 13:29:26;;;;;;;;;;;;;;;30.63;34.63;99344.16;1679512;85;20085;-69
2022/06/25 13:31:52;;;;;;;;;;;;;;;30.54;35.26;99344.86;1679477;85;20178;-69
2022/06/25 13:34:19;;;;;;;;;;;;;;;30.61;36.67;99343.06;1660239;85;20109;-69
2022/06/25 13:36:45;;;;;;;;;;;;;;;30.84;35.49;99346.88;1679531;85;20120;-69
2022/06/25 13:39:12;;;;;;;;;;;;;;;31.15;35.28;99336.48;1679647;85;21130;-70
2022/06/25 13:41:40;;;;;;;;;;;;;;;31.45;33.63;99336.97;1651379;85;20126;-70
2022/06/25 13:44:07;;;;;;;;;;;;;;;31.60;33.39;99328.09;1628683;86;20130;-69
2022/06/25 13:46:34;;;;;;;;;;;;;;;31.66;33.16;99336.79;1660886;85;20441;-70
2022/06/25 13:49:01;;;;;;;;;;;;;;;31.65;34.08;99328.91;1660807;86;20206;-69
2022/06/25 13:51:28;;;;;;;;;;;;;;;31.93;32.38;99328.42;1660797;86;21132;-71
2022/06/25 13:53:54;;;;;;;;;;;;;;;32.11;30.79;99324.23;1660819;85;20467;-71
2022/06/25 13:56:21;;;;;;;;;;;;;;;31.94;30.65;99331.42;1660702;86;20117;-71
2022/06/25 13:58:48;;;;;;;;;;;;;;;31.61;32.15;99331.72;1660821;86;20117;-70
2022/06/25 14:01:14;;;;;;;;;;;;;;;31.46;32.55;99335.72;1661001;86;20483;-71
2022/06/25 14:03:41;;;;;;;;;;;;;;;31.07;33.63;99342.83;1660799;86;21156;-69
2022/06/25 14:06:08;;;;;;;;;;;;;;;30.53;33.26;99342.48;1659763;86;20180;-76
2022/06/25 14:08:35;;;;;;;;;;;;;;;30.06;35.11;99341.78;1660308;86;20113;-69
2022/06/25 14:11:04;;;;;;;;;;;;;;;30.06;36.04;99345.23;1660770;85;20118;-68
2022/06/25 14:13:31;;;;;;;;;;;;;;;30.32;35.60;99341.15;1660809;86;20468;-68
2022/06/25 14:15:58;;;;;;;;;;;;;;;30.68;34.99;99333.66;1660619;85;21160;-73
2022/06/25 14:18:24;;;;;;;;;;;;;;;30.98;34.17;99331.42;1660646;86;20488;-77
2022/06/25 14:20:50;;;;;;;;;;;;;;;31.07;31.91;99325.83;1658576;86;20229;-77
2022/06/25 14:23:17;;;;;;;;;;;;;;;30.96;32.67;99328.25;1660459;86;20181;-74
2022/06/25 14:25:44;;;;;;;;;;;;;;;31.10;30.89;99330.58;1660806;86;20117;-74
2022/06/25 14:28:10;;;;;;;;;;;;;;;31.19;32.36;99328.63;1660712;85;21164;-76
2022/06/25 14:30:37;;;;;;;;;;;;;;;31.33;29.93;99334.38;1660712;86;20182;-74
2022/06/25 14:33:04;;;;;;;;;;;;;;;31.07;31.68;99337.95;1660966;86;20146;-73
2022/06/25 14:35:30;;;;;;;;;;;;;;;30.67;31.91;99339.78;1660911;86;20105;-71
2022/06/25 14:43:29;;;;;;;;;;;;;;;30.60;32.84;99333.77;1660552;86;20129;-73
2022/06/25 14:45:58;;;;;;;;;;;;;;;30.93;32.34;99337.67;1660842;86;20134;-73
2022/06/25 14:48:26;;;;;;;;;;;;;;;31.04;32.14;99337.45;1660860;86;20155;-75
2022/06/25 14:50:52;;;;;;;;;;;;;;;31.11;31.47;99335.78;1660065;85;20582;-73
2022/06/25 14:53:18;;;;;;;;;;;;;;;31.13;31.39;99335.35;1659166;85;21135;-73
2022/06/25 14:55:47;;;;;;;;;;;;;;;31.15;31.34;99330.80;1660020;86;20187;-75
2022/06/25 14:58:14;;;;;;;;;;;;;;;31.18;30.92;99335.55;1660276;86;20483;-74
2022/06/25 15:00:40;;;;;;;;;;;;;;;31.13;30.44;99336.77;1660350;86;20129;-75
2022/06/25 15:03:07;;;;;;;;;;;;;;;31.11;31.52;99327.91;1660763;86;20145;-75
2022/06/25 15:05:34;;;;;;;;;;;;;;;31.07;30.82;99335.12;1660369;86;20711;-77
2022/06/25 15:08:01;;;;;;;;;;;;;;;31.05;31.38;99339.66;1660435;86;20118;-74
2022/06/25 15:10:27;;;;;;;;;;;;;;;31.07;31.22;99340.79;1660721;86;20473;-75
2022/06/25 15:12:55;;;;;;;;;;;;;;;31.03;30.55;99343.59;1660456;85;20147;-74
2022/06/25 15:15:22;;;;;;;;;;;;;;;30.86;31.43;99343.75;1660386;85;20167;-73
2022/06/25 15:17:48;;;;;;;;;;;;;;;30.92;31.42;99344.59;1660731;86;21054;-75
2022/06/25 15:20:15;;;;;;;;;;;;;;;31.04;31.42;99346.59;1660704;86;20150;-77
2022/06/25 15:22:41;;;;;;;;;;;;;;;31.15;31.60;99338.52;1660480;86;20998;-75
2022/06/25 15:25:08;;;;;;;;;;;;;;;31.24;31.42;99343.44;1660686;86;20126;-76
2022/06/25 15:27:34;;;;;;;;;;;;;;;31.35;31.24;99338.95;1660786;86;20154;-70
2022/06/25 15:30:01;;;;;;;;;;;;;;;31.39;31.07;99338.20;1658924;86;21157;-72
2022/06/25 15:32:29;;;;;;;;;;;;;;;31.37;31.05;99331.41;1645878;85;20455;-72
2022/06/25 15:34:56;;;;;;;;;;;;;;;31.34;29.32;99330.91;1655442;86;20130;-67
2022/06/25 15:37:22;;;;;;;;;;;;;;;31.24;30.22;99329.27;1660392;86;20169;-68
2022/06/25 15:39:50;;;;;;;;;;;;;;;31.22;29.66;99328.93;1658531;86;20129;-68
2022/06/25 15:42:16;;;;;;;;;;;;;;;31.24;30.32;99334.30;1661582;86;21205;-68
2022/06/25 15:44:43;;;;;;;;;;;;;;;31.23;29.99;99336.19;1645720;87;20122;-68
2022/06/25 15:47:09;;;;;;;;;;;;;;;31.18;30.25;99335.55;1646043;87;20099;-69
2022/06/25 15:49:36;;;;;;;;;;;;;;;31.09;31.18;99340.33;1645766;87;20217;-70
2022/06/25 15:52:03;;;;;;;;;;;;;;;30.88;31.07;99344.09;1645758;87;20125;-71
2022/06/25 15:54:31;;;;;;;;;;;;;;;30.63;31.25;99345.58;1645744;87;21249;-72
2022/06/25 15:56:57;;;;;;;;;;;;;;;30.51;31.86;99350.64;1645686;87;20458;-72
2022/06/25 15:59:31;;;;;;;;;;;;;;;30.41;31.89;99356.83;1645751;87;20178;-71
2022/06/25 16:01:59;;;;;;;;;;;;;;;30.19;31.46;99360.19;1646000;87;20087;-71
2022/06/25 16:04:27;;;;;;;;;;;;;;;29.71;31.94;99358.45;1645483;87;20099;-70
2022/06/25 16:06:58;;;;;;;;;;;;;;;29.17;33.00;99362.02;1645752;87;21090;-68
2022/06/25 16:09:22;;;;;;;;;;;;;;;28.87;32.89;99366.88;1644331;87;20174;-68
2022/06/25 16:11:51;;;;;;;;;;;;;;;28.80;33.38;99365.62;1645767;87;20119;-71
2022/06/25 16:14:18;;;;;;;;;;;;;;;28.73;33.25;99367.22;1646004;87;20466;-71
2022/06/25 16:16:46;;;;;;;;;;;;;;;28.56;33.91;99365.64;1645674;86;20123;-74
2022/06/25 16:19:13;;;;;;;;;;;;;;;28.45;34.42;99363.09;1656931;86;21149;-70
2022/06/25 16:21:40;;;;;;;;;;;;;;;28.42;34.75;99370.23;1645507;87;20119;-69
2022/06/25 16:24:08;;;;;;;;;;;;;;;28.38;35.46;99375.17;1645584;87;20147;-69
2022/06/25 16:26:36;;;;;;;;;;;;;;;28.44;35.33;99363.53;1645797;87;20087;-75
2022/06/25 16:29:03;;;;;;;;;;;;;;;28.56;35.18;99365.64;1645834;87;20138;-75
2022/06/25 16:31:30;;;;;;;;;;;;;;;28.72;35.85;99364.22;1645239;87;21799;-73
2022/06/25 16:33:56;;;;;;;;;;;;;;;28.81;34.38;99362.98;1645032;87;20151;-73
2022/06/25 16:36:27;;;;;;;;;;;;;;;28.78;34.43;99363.86;1645338;87;20497;-71
2022/06/25 16:38:52;;;;;;;;;;;;;;;28.72;35.38;99372.70;1645634;86;20568;-72
2022/06/25 16:41:23;;;;;;;;;;;;;;;28.67;35.78;99373.23;1644911;86;20119;-72
2022/06/25 16:44:05;;;;;;;;;;;;;;;28.60;36.49;99375.61;1643320;87;21243;-76
2022/06/25 16:46:38;;;;;;;;;;;;;;;28.48;37.63;99376.94;1643219;86;20628;-76
2022/06/25 16:49:09;;;;;;;;;;;;;;;28.33;37.74;99377.11;1643267;87;20168;-75
2022/06/25 16:51:37;;;;;;;;;;;;;;;28.13;38.65;99379.38;1643398;87;20476;-75
2022/06/25 16:54:03;;;;;;;;;;;;;;;27.84;38.75;99380.63;1643572;86;20152;-75
2022/06/25 16:56:31;;;;;;;;;;;;;;;27.47;39.94;99386.05;1643414;87;21236;-72
2022/06/25 16:58:58;;;;;;;;;;;;;;;27.11;40.78;99380.95;1642131;87;20548;-73
2022/06/25 17:01:25;;;;;;;;;;;;;;;26.83;41.96;99375.20;1643030;87;20115;-74
2022/06/25 17:03:53;;;;;;;;;;;;;;;26.57;42.48;99383.28;1643667;87;20148;-72
2022/06/25 17:06:20;;;;;;;;;;;;;;;26.27;43.11;99381.95;1622705;87;20119;-71
2022/06/25 17:08:46;;;;;;;;;;;;;;;25.95;44.09;99379.03;1643718;87;21477;-68
2022/06/25 17:11:13;;;;;;;;;;;;;;;25.71;44.85;99387.80;1643423;87;20482;-71
2022/06/25 17:13:40;;;;;;;;;;;;;;;25.47;45.65;99389.06;1641230;87;20218;-72
2022/06/25 17:16:07;;;;;;;;;;;;;;;25.25;45.97;99394.77;1643256;86;20844;-71
2022/06/25 17:18:35;;;;;;;;;;;;;;;25.05;46.56;99400.20;1643818;87;20474;-70
2022/06/25 17:21:03;;;;;;;;;;;;;;;24.89;47.22;99400.72;1643429;87;21108;-70
2022/06/25 17:23:30;;;;;;;;;;;;;;;24.74;47.54;99402.70;1643349;86;20143;-70
2022/06/25 17:25:57;;;;;;;;;;;;;;;24.60;48.00;99402.22;1643440;87;20175;-70
2022/06/25 17:28:23;;;;;;;;;;;;;;;24.46;48.38;99403.73;1643662;87;20191;-69
2022/06/25 17:30:50;;;;;;;;;;;;;;;24.32;49.02;99399.02;1654102;86;20463;-68
2022/06/25 17:33:17;;;;;;;;;;;;;;;24.19;49.59;99391.69;1669255;86;21841;-73
2022/06/25 17:35:45;;;;;;;;;;;;;;;24.07;50.05;99391.37;1669773;86;20149;-73
2022/06/25 17:38:12;;;;;;;;;;;;;;;23.96;50.71;99399.84;1670730;86;20157;-71
2022/06/25 17:40:40;;;;;;;;;;;;;;;23.84;50.92;99401.72;1670590;86;20483;-76
2022/06/25 17:43:06;;;;;;;;;;;;;;;23.74;51.70;99399.77;1661602;85;20129;-75
2022/06/25 17:45:33;;;;;;;;;;;;;;;23.63;52.32;99399.23;1660475;86;21151;-75
2022/06/25 17:48:02;;;;;;;;;;;;;;;23.55;52.33;99399.67;1661201;85;20201;-75
2022/06/25 17:50:28;;;;;;;;;;;;;;;23.48;52.67;99403.88;1660438;86;20172;-76
2022/06/25 17:52:56;;;;;;;;;;;;;;;23.41;53.48;99408.89;1661500;85;20481;-75
2022/06/25 17:55:22;;;;;;;;;;;;;;;23.33;54.72;99407.32;1660528;86;20602;-76
2022/06/25 17:57:48;;;;;;;;;;;;;;;23.25;55.79;99412.14;1660391;86;21119;-73
2022/06/25 18:00:16;;;;;;;;;;;;;;;23.16;56.28;99412.36;1660551;86;20483;-68
2022/06/25 18:02:43;;;;;;;;;;;;;;;23.04;57.36;99418.61;1661005;85;20200;-70
2022/06/25 18:05:09;;;;;;;;;;;;;;;22.89;58.04;99417.03;1660590;85;20154;-71
2022/06/25 18:07:37;;;;;;;;;;;;;;;22.76;59.40;99412.22;1660785;85;20500;-72
2022/06/25 18:10:05;;;;;;;;;;;;;;;22.59;59.88;99413.81;1660475;86;21557;-71
2022/06/25 18:12:33;;;;;;;;;;;;;;;22.42;60.83;99416.83;1639229;86;20122;-72
2022/06/25 18:15:00;;;;;;;;;;;;;;;22.25;61.55;99423.20;1660231;85;20186;-75
2022/06/25 18:17:27;;;;;;;;;;;;;;;22.09;62.47;99431.95;1659804;86;20150;-71
2022/06/25 18:19:54;;;;;;;;;;;;;;;21.92;62.90;99424.31;1660797;85;20137;-73
2022/06/25 18:22:22;;;;;;;;;;;;;;;21.75;64.56;99442.02;1660713;86;21194;-73
2022/06/25 18:24:49;;;;;;;;;;;;;;;21.58;64.82;99436.36;1660663;85;20480;-72
2022/06/25 18:27:15;;;;;;;;;;;;;;;21.43;65.58;99441.06;1661039;85;20119;-73
2022/06/25 18:29:42;;;;;;;;;;;;;;;21.26;66.62;99443.99;1660517;85;20118;-71
2022/06/25 18:32:08;;;;;;;;;;;;;;;21.12;67.23;99449.45;1660449;86;20153;-72
2022/06/25 18:34:35;;;;;;;;;;;;;;;20.98;68.38;99447.95;1660479;86;21147;-72
2022/06/25 18:37:04;;;;;;;;;;;;;;;20.87;68.96;99448.47;1660524;86;20154;-71
2022/06/25 18:39:31;;;;;;;;;;;;;;;20.79;69.63;99454.62;1660373;85;20117;-73